createdAt,value
2022-12-04T00:02:10.835Z,31.35
2022-12-04T00:04:37.387Z,36.88
2022-12-04T00:07:04.384Z,35.40
2022-12-04T00:09:31.104Z,33.72
2022-12-04T00:11:57.762Z,30.17
2022-12-04T00:14:24.270Z,33.33
2022-12-04T00:16:50.835Z,37.17
2022-12-04T00:19:17.514Z,32.72
2022-12-04T00:21:45.465Z,32.65
2022-12-04T00:24:12.433Z,37.10
2022-12-04T00:26:38.929Z,33.60
2022-12-04T00:29:05.561Z,29.77
2022-12-04T00:31:32.375Z,30.63
2022-12-04T00:33:59.144Z,15.93
2022-12-04T00:36:27.967Z,36.00
2022-12-04T00:38:54.919Z,32.58
2022-12-04T00:41:25.908Z,31.85
2022-12-04T00:43:52.578Z,31.75
2022-12-04T00:46:19.730Z,32.45
2022-12-04T00:48:46.791Z,34.10
2022-12-04T00:51:24.306Z,29.23
2022-12-04T00:53:52.599Z,30.30
2022-12-04T00:56:27.385Z,29.58
2022-12-04T00:58:56.738Z,33.10
2022-12-04T01:01:24.761Z,30.83
2022-12-04T01:03:51.587Z,29.40
2022-12-04T01:06:25.604Z,28.77
2022-12-04T01:08:53.685Z,31.92
2022-12-04T01:11:21.627Z,30.80
2022-12-04T01:13:48.048Z,30.02
2022-12-04T01:16:30.016Z,29.70
2022-12-04T01:18:57.149Z,30.92
2022-12-04T01:21:23.764Z,29.20
2022-12-04T01:23:50.424Z,30.85
2022-12-04T01:26:17.232Z,29.73
2022-12-04T01:28:44.006Z,30.63
2022-12-04T01:31:14.520Z,31.02
2022-12-04T01:33:42.052Z,30.48
2022-12-04T01:36:11.683Z,31.95
2022-12-04T01:38:39.205Z,28.77
2022-12-04T01:41:06.660Z,30.75
2022-12-04T01:43:36.933Z,31.55
2022-12-04T01:46:04.843Z,28.70
2022-12-04T01:48:34.328Z,29.63
2022-12-04T01:51:26.981Z,32.05
2022-12-04T01:54:00.571Z,30.35
2022-12-04T01:56:33.386Z,32.33
2022-12-04T01:59:01.657Z,29.38
2022-12-04T02:01:31.868Z,28.70
2022-12-04T02:04:02.925Z,28.63
2022-12-04T02:06:29.376Z,29.90
2022-12-04T02:08:55.897Z,32.25
2022-12-04T02:11:27.273Z,26.90
2022-12-04T02:14:07.590Z,28.98
2022-12-04T02:17:02.211Z,32.05
2022-12-04T02:22:30.155Z,27.65
2022-12-04T02:25:28.028Z,30.95
2022-12-04T02:28:02.356Z,27.35
2022-12-04T02:30:31.282Z,27.27
2022-12-04T02:33:09.941Z,29.30
2022-12-04T02:35:43.314Z,29.15
2022-12-04T02:38:35.695Z,27.83
2022-12-04T02:41:17.217Z,27.35
2022-12-04T02:43:56.275Z,25.70
2022-12-04T02:46:36.992Z,26.67
2022-12-04T02:49:08.345Z,23.85
2022-12-04T02:51:39.344Z,28.02
2022-12-04T02:54:12.011Z,26.73
2022-12-04T02:56:43.507Z,26.48
2022-12-04T02:59:25.137Z,26.52
2022-12-04T03:01:56.981Z,29.40
2022-12-04T03:04:28.120Z,28.33
2022-12-04T03:07:00.555Z,27.35
2022-12-04T03:09:36.791Z,26.00
2022-12-04T03:12:44.307Z,27.83
2022-12-04T03:17:51.892Z,25.45
2022-12-04T03:20:19.649Z,27.33
2022-12-04T03:22:52.759Z,28.92
2022-12-04T03:25:19.366Z,30.05
2022-12-04T03:28:05.251Z,29.98
2022-12-04T03:30:45.343Z,25.02
2022-12-04T03:33:19.944Z,27.20
2022-12-04T03:35:55.629Z,27.13
2022-12-04T03:38:34.407Z,26.88
2022-12-04T03:41:12.064Z,24.35
2022-12-04T03:43:58.841Z,23.95
2022-12-04T03:46:39.467Z,27.98
2022-12-04T03:49:37.146Z,23.25
2022-12-04T03:52:22.883Z,26.45
2022-12-04T03:55:02.204Z,29.25
2022-12-04T03:57:34.578Z,24.85
2022-12-04T04:00:16.430Z,23.77
2022-12-04T04:02:50.589Z,26.83
2022-12-04T04:05:19.325Z,24.35
2022-12-04T04:07:51.655Z,27.00
2022-12-04T04:10:22.689Z,25.27
2022-12-04T04:13:20.587Z,25.75
2022-12-04T04:16:14.615Z,25.70
2022-12-04T04:19:01.287Z,23.38
2022-12-04T04:21:51.168Z,25.10
2022-12-04T04:25:13.362Z,24.30
2022-12-04T04:27:39.907Z,19.98
2022-12-04T04:30:07.572Z,22.63
2022-12-04T04:32:50.752Z,21.08
2022-12-04T04:35:25.233Z,21.73
2022-12-04T04:38:09.784Z,22.15
2022-12-04T04:40:52.990Z,23.23
2022-12-04T04:44:15.322Z,23.27
2022-12-04T04:46:48.448Z,21.70
2022-12-04T04:49:16.493Z,22.42
2022-12-04T04:51:44.064Z,24.80
2022-12-04T04:54:14.552Z,22.25
2022-12-04T04:56:43.183Z,20.38
2022-12-04T04:59:10.287Z,23.45
2022-12-04T05:01:38.860Z,22.30
2022-12-04T05:04:06.608Z,21.75
2022-12-04T05:06:33.074Z,23.05
2022-12-04T05:08:59.758Z,20.85
2022-12-04T05:11:26.387Z,21.52
2022-12-04T05:13:53.021Z,20.10
2022-12-04T05:16:19.548Z,19.05
2022-12-04T05:19:06.060Z,21.50
2022-12-04T05:21:33.665Z,20.95
2022-12-04T05:24:00.822Z,20.67
2022-12-04T05:26:28.235Z,19.77
2022-12-04T05:28:54.683Z,17.85
2022-12-04T05:31:21.202Z,17.88
2022-12-04T05:33:47.758Z,18.67
2022-12-04T05:36:14.278Z,19.50
2022-12-04T05:38:40.713Z,19.90
2022-12-04T05:41:07.586Z,19.13
2022-12-04T05:43:35.039Z,21.17
2022-12-04T05:46:06.834Z,20.17
2022-12-04T05:48:34.928Z,17.77
2022-12-04T05:51:05.437Z,18.73
2022-12-04T05:53:31.876Z,19.70
2022-12-04T05:56:00.884Z,16.02
2022-12-04T05:58:28.329Z,19.88
2022-12-04T06:00:55.167Z,17.20
2022-12-04T06:03:22.633Z,17.13
2022-12-04T06:05:49.410Z,19.55
2022-12-04T06:08:15.921Z,19.40
2022-12-04T06:10:42.809Z,18.42
2022-12-04T06:13:09.377Z,19.15
2022-12-04T06:15:40.077Z,19.55
2022-12-04T06:18:07.093Z,18.67
2022-12-04T06:20:34.096Z,17.58
2022-12-04T06:23:00.733Z,20.95
2022-12-04T06:25:27.299Z,21.73
2022-12-04T06:27:53.783Z,18.80
2022-12-04T06:30:20.356Z,17.45
2022-12-04T06:32:46.977Z,18.80
2022-12-04T06:35:13.430Z,21.23
2022-12-04T06:37:40.040Z,22.63
2022-12-04T06:40:07.343Z,17.85
2022-12-04T06:42:33.758Z,17.73
2022-12-04T06:45:00.198Z,17.90
2022-12-04T06:47:26.751Z,17.23
2022-12-04T06:49:53.359Z,17.02
2022-12-04T06:52:20.031Z,19.17
2022-12-04T06:54:46.446Z,19.45
2022-12-04T06:57:12.975Z,18.58
2022-12-04T06:59:39.470Z,19.20
2022-12-04T07:02:10.712Z,18.38
2022-12-04T07:04:37.174Z,15.40
2022-12-04T07:07:03.608Z,15.02
2022-12-04T07:09:30.042Z,14.88
2022-12-04T07:11:56.880Z,15.65
2022-12-04T07:14:23.266Z,16.17
2022-12-04T07:16:49.773Z,15.88
2022-12-04T07:19:18.508Z,15.35
2022-12-04T07:21:44.984Z,18.17
2022-12-04T07:24:17.815Z,18.08
2022-12-04T07:26:45.209Z,14.48
2022-12-04T07:29:11.658Z,12.55
2022-12-04T07:31:38.210Z,11.52
2022-12-04T07:34:04.746Z,13.95
2022-12-04T07:36:31.410Z,15.13
2022-12-04T07:38:58.074Z,12.98
2022-12-04T07:41:24.902Z,13.85
2022-12-04T07:43:51.587Z,16.30
2022-12-04T07:46:21.478Z,15.25
2022-12-04T07:48:48.214Z,15.73
2022-12-04T07:51:21.018Z,14.07
2022-12-04T07:54:58.173Z,14.02
2022-12-04T07:57:28.269Z,12.82
2022-12-04T07:59:55.263Z,13.77
2022-12-04T08:02:22.105Z,12.15
2022-12-04T08:04:48.546Z,14.45
2022-12-04T08:07:15.033Z,11.38
2022-12-04T08:09:41.711Z,12.95
2022-12-04T08:12:08.168Z,12.07
2022-12-04T08:14:34.591Z,12.27
2022-12-04T08:17:02.769Z,13.65
2022-12-04T08:19:31.018Z,12.45
2022-12-04T08:21:57.656Z,13.27
2022-12-04T08:24:24.071Z,13.18
2022-12-04T08:26:50.595Z,13.45
2022-12-04T08:29:17.220Z,23.20
2022-12-04T08:31:46.022Z,12.35
2022-12-04T08:34:13.929Z,14.55
2022-12-04T08:36:40.399Z,13.38
2022-12-04T08:39:09.608Z,11.80
2022-12-04T08:41:36.007Z,13.48
2022-12-04T08:44:02.930Z,13.65
2022-12-04T08:46:29.920Z,15.18
2022-12-04T08:48:57.871Z,17.38
2022-12-04T08:51:27.795Z,13.93
2022-12-04T08:53:59.314Z,15.80
2022-12-04T08:56:27.482Z,14.75
2022-12-04T08:58:56.477Z,13.32
2022-12-04T09:01:23.699Z,16.13
2022-12-04T09:03:50.363Z,12.57
2022-12-04T09:06:17.722Z,13.43
2022-12-04T09:08:44.655Z,15.70
2022-12-04T09:11:20.473Z,16.20
2022-12-04T09:13:47.149Z,13.98
2022-12-04T09:16:18.023Z,14.98
2022-12-04T09:18:45.068Z,12.98
2022-12-04T09:21:13.838Z,13.10
2022-12-04T09:23:41.245Z,14.68
2022-12-04T09:26:26.556Z,14.85
2022-12-04T09:28:54.654Z,14.55
2022-12-04T09:31:22.322Z,15.40
2022-12-04T09:33:48.941Z,13.18
2022-12-04T09:36:18.142Z,14.70
2022-12-04T09:38:46.735Z,15.27
2022-12-04T09:41:31.960Z,14.88
2022-12-04T09:44:21.506Z,15.27
2022-12-04T09:47:06.591Z,15.60
2022-12-04T09:49:41.779Z,12.52
2022-12-04T09:52:33.426Z,14.75
2022-12-04T09:55:02.808Z,15.20
2022-12-04T09:57:40.405Z,13.23
2022-12-04T10:00:11.651Z,14.30
2022-12-04T10:02:41.430Z,15.98
2022-12-04T10:05:17.646Z,15.95
2022-12-04T10:08:06.207Z,14.98
2022-12-04T10:10:41.402Z,13.55
2022-12-04T10:13:23.607Z,17.30
2022-12-04T10:16:07.006Z,14.88
2022-12-04T10:18:58.521Z,13.82
2022-12-04T10:21:43.409Z,15.10
2022-12-04T10:24:22.033Z,13.50
2022-12-04T10:26:49.295Z,14.27
2022-12-04T10:29:30.895Z,14.35
2022-12-04T10:32:05.357Z,15.50
2022-12-04T10:34:32.378Z,13.35
2022-12-04T10:37:06.265Z,17.35
2022-12-04T10:39:41.635Z,15.10
2022-12-04T10:42:24.748Z,16.48
2022-12-04T10:44:52.452Z,15.45
2022-12-04T10:47:20.986Z,15.57
2022-12-04T10:49:48.121Z,27.45
2022-12-04T10:52:14.808Z,17.05
2022-12-04T10:55:01.009Z,14.10
2022-12-04T10:57:42.864Z,13.07
2022-12-04T11:00:33.301Z,15.60
2022-12-04T11:03:02.927Z,12.13
2022-12-04T11:05:35.939Z,14.25
2022-12-04T11:08:05.126Z,13.88
2022-12-04T11:10:36.658Z,14.70
2022-12-04T11:13:10.949Z,14.48
2022-12-04T11:15:46.202Z,15.23
2022-12-04T11:18:19.485Z,15.65
2022-12-04T11:21:13.576Z,14.40
2022-12-04T11:23:49.115Z,14.15
2022-12-04T11:26:18.679Z,15.63
2022-12-04T11:28:53.314Z,14.50
2022-12-04T11:31:22.872Z,14.88
2022-12-04T11:33:54.826Z,14.27
2022-12-04T11:36:34.622Z,16.23
2022-12-04T11:39:12.737Z,17.08
2022-12-04T11:41:40.194Z,18.00
2022-12-04T11:44:26.123Z,16.73
2022-12-04T11:46:55.949Z,16.02
2022-12-04T11:49:24.681Z,18.70
2022-12-04T11:52:10.379Z,16.23
2022-12-04T11:55:03.200Z,15.05
2022-12-04T11:57:53.187Z,15.65
2022-12-04T12:00:22.894Z,16.15
2022-12-04T12:03:17.683Z,15.27
2022-12-04T12:05:53.672Z,15.35
2022-12-04T12:08:42.040Z,14.45
2022-12-04T12:14:19.103Z,15.93
2022-12-04T12:17:34.953Z,15.65
2022-12-04T12:20:14.750Z,15.85
2022-12-04T12:22:47.773Z,15.68
2022-12-04T12:25:21.542Z,16.70
2022-12-04T12:28:01.497Z,16.98
2022-12-04T12:30:39.104Z,18.50
2022-12-04T12:33:19.626Z,21.02
2022-12-04T12:36:03.553Z,17.33
2022-12-04T12:38:38.716Z,16.20
2022-12-04T12:41:16.412Z,18.10
2022-12-04T12:43:48.834Z,17.90
2022-12-04T12:46:30.660Z,17.55
2022-12-04T12:49:45.095Z,16.88
2022-12-04T12:52:24.427Z,14.52
2022-12-04T12:55:23.374Z,16.63
2022-12-04T12:58:09.260Z,17.30
2022-12-04T13:00:49.596Z,18.92
2022-12-04T13:03:33.426Z,16.45
2022-12-04T13:06:06.125Z,15.20
2022-12-04T13:08:44.898Z,17.00
2022-12-04T13:13:59.183Z,18.35
2022-12-04T13:16:31.185Z,16.60
2022-12-04T13:19:07.897Z,19.52
2022-12-04T13:22:06.709Z,17.23
2022-12-04T13:24:45.531Z,17.55
2022-12-04T13:27:49.706Z,19.30
2022-12-04T13:30:23.422Z,22.23
2022-12-04T13:33:21.154Z,16.55
2022-12-04T13:36:03.399Z,19.15
2022-12-04T13:38:59.980Z,21.77
2022-12-04T13:41:28.257Z,19.75
2022-12-04T13:43:55.451Z,17.85
2022-12-04T13:46:22.391Z,20.05
2022-12-04T13:48:49.417Z,19.38
2022-12-04T13:51:26.197Z,19.13
2022-12-04T13:54:25.421Z,22.42
2022-12-04T13:56:55.482Z,18.33
2022-12-04T13:59:34.222Z,23.05
2022-12-04T14:02:08.224Z,20.83
2022-12-04T14:04:47.000Z,18.55
2022-12-04T14:07:26.925Z,21.48
2022-12-04T14:09:55.978Z,22.30
2022-12-04T14:12:33.497Z,26.95
2022-12-04T14:15:20.326Z,22.00
2022-12-04T14:18:16.384Z,21.92
2022-12-04T14:20:44.717Z,25.83
2022-12-04T14:23:25.730Z,22.42
2022-12-04T14:25:57.790Z,20.48
2022-12-04T14:28:30.428Z,23.08
2022-12-04T14:31:29.228Z,20.50
2022-12-04T14:34:29.219Z,21.58
2022-12-04T14:36:57.640Z,20.88
2022-12-04T14:39:44.684Z,22.95
2022-12-04T14:42:23.739Z,20.38
2022-12-04T14:44:57.395Z,21.65
2022-12-04T14:47:42.642Z,19.17
2022-12-04T14:50:25.426Z,21.27
2022-12-04T14:53:03.773Z,18.58
2022-12-04T14:56:01.196Z,18.52
2022-12-04T14:58:36.050Z,17.98
2022-12-04T15:01:27.076Z,17.60
2022-12-04T15:03:58.064Z,19.58
2022-12-04T15:06:27.511Z,16.60
2022-12-04T15:09:15.488Z,16.02
2022-12-04T15:12:06.634Z,17.23
2022-12-04T15:14:42.764Z,18.85
2022-12-04T15:17:11.429Z,19.98
2022-12-04T15:19:38.937Z,20.17
2022-12-04T15:22:12.259Z,15.40
2022-12-04T15:24:39.003Z,18.88
2022-12-04T15:27:06.975Z,16.75
2022-12-04T15:29:35.471Z,18.92
2022-12-04T15:32:08.264Z,19.17
2022-12-04T15:34:43.074Z,19.33
2022-12-04T15:37:21.886Z,24.48
2022-12-04T15:39:52.526Z,21.55
2022-12-04T15:42:29.636Z,16.90
2022-12-04T15:45:24.097Z,20.52
2022-12-04T15:47:55.151Z,18.00
2022-12-04T15:50:29.284Z,17.40
2022-12-04T15:53:03.687Z,17.63
2022-12-04T15:55:33.409Z,18.63
2022-12-04T15:58:05.169Z,16.48
2022-12-04T16:00:38.990Z,18.02
2022-12-04T16:03:46.557Z,18.55
2022-12-04T16:06:26.863Z,16.83
2022-12-04T16:08:59.352Z,16.33
2022-12-04T16:11:38.959Z,17.35
2022-12-04T16:14:15.600Z,16.48
2022-12-04T16:16:51.543Z,13.73
2022-12-04T16:19:32.860Z,18.20
2022-12-04T16:22:01.406Z,17.00
2022-12-04T16:24:28.142Z,17.40
2022-12-04T16:26:55.952Z,15.75
2022-12-04T16:29:23.551Z,18.35
2022-12-04T16:31:51.098Z,16.83
2022-12-04T16:34:18.387Z,15.80
2022-12-04T16:36:45.000Z,18.42
2022-12-04T16:39:11.566Z,14.02
2022-12-04T16:41:38.563Z,18.55
2022-12-04T16:44:13.397Z,15.85
2022-12-04T16:46:39.983Z,17.67
2022-12-04T16:49:07.764Z,17.00
2022-12-04T16:51:37.268Z,14.32
2022-12-04T16:54:03.951Z,17.27
2022-12-04T16:56:30.631Z,17.95
2022-12-04T16:58:57.035Z,18.33
2022-12-04T17:01:28.462Z,14.95
2022-12-04T17:03:55.027Z,15.65
2022-12-04T17:06:21.710Z,16.42
2022-12-04T17:08:48.146Z,15.07
2022-12-04T17:11:17.538Z,17.17
2022-12-04T17:13:45.783Z,17.67
2022-12-04T17:16:15.043Z,15.23
2022-12-04T17:18:44.565Z,19.17
2022-12-04T17:21:12.661Z,14.70
2022-12-04T17:23:39.552Z,18.77
2022-12-04T17:26:08.798Z,16.80
2022-12-04T17:28:36.327Z,17.63
2022-12-04T17:31:06.014Z,16.42
2022-12-04T17:33:33.571Z,19.45
2022-12-04T17:36:03.428Z,15.63
2022-12-04T17:38:30.009Z,20.50
2022-12-04T17:41:01.552Z,16.98
2022-12-04T17:43:32.537Z,18.52
2022-12-04T17:45:59.533Z,18.75
2022-12-04T17:48:27.401Z,17.67
2022-12-04T17:51:08.148Z,20.48
2022-12-04T17:53:35.521Z,18.67
2022-12-04T17:56:06.958Z,19.38
2022-12-04T17:58:34.388Z,20.15
2022-12-04T18:01:11.766Z,18.42
2022-12-04T18:03:39.237Z,21.30
2022-12-04T18:06:24.002Z,20.48
2022-12-04T18:08:51.683Z,19.05
2022-12-04T18:11:20.615Z,21.55
2022-12-04T18:14:00.285Z,22.02
2022-12-04T18:16:28.711Z,19.60
2022-12-04T18:18:56.526Z,21.90
2022-12-04T18:21:23.849Z,20.70
2022-12-04T18:23:50.935Z,24.33
2022-12-04T18:26:22.931Z,27.58
2022-12-04T18:28:50.202Z,27.92
2022-12-04T18:31:18.784Z,27.67
2022-12-04T18:33:45.675Z,27.75
2022-12-04T18:36:16.372Z,30.13
2022-12-04T18:38:43.376Z,27.23
2022-12-04T18:41:12.182Z,22.75
2022-12-04T18:46:09.990Z,25.25
2022-12-04T18:48:37.941Z,34.13
2022-12-04T18:51:20.453Z,28.98
2022-12-04T18:53:47.922Z,29.67
2022-12-04T18:56:15.132Z,26.65
2022-12-04T18:58:42.578Z,23.55
2022-12-04T19:01:11.686Z,24.58
2022-12-04T19:03:38.226Z,24.92
2022-12-04T19:06:05.269Z,22.90
2022-12-04T19:08:34.320Z,24.15
2022-12-04T19:11:14.255Z,26.75
2022-12-04T19:13:41.776Z,24.23
2022-12-04T19:16:13.021Z,24.27
2022-12-04T19:18:39.972Z,23.65
2022-12-04T19:21:07.231Z,23.25
2022-12-04T19:23:33.877Z,28.95
2022-12-04T19:26:01.485Z,24.55
2022-12-04T19:28:28.189Z,25.10
2022-12-04T19:30:54.849Z,25.80
2022-12-04T19:33:23.414Z,26.00
2022-12-04T19:36:01.065Z,29.20
2022-12-04T19:38:28.435Z,26.95
2022-12-04T19:41:12.206Z,23.65
2022-12-04T19:43:41.302Z,23.05
2022-12-04T19:46:10.238Z,25.05
2022-12-04T19:48:38.028Z,23.02
2022-12-04T19:51:10.503Z,27.25
2022-12-04T19:53:40.840Z,23.75
2022-12-04T19:56:10.661Z,28.58
2022-12-04T19:58:37.399Z,26.27
2022-12-04T20:01:08.653Z,23.10
2022-12-04T20:03:35.425Z,23.88
2022-12-04T20:06:07.746Z,27.73
2022-12-04T20:08:35.252Z,27.08
2022-12-04T20:11:06.882Z,27.00
2022-12-04T20:13:36.924Z,24.67
2022-12-04T20:16:05.192Z,29.33
2022-12-04T20:18:34.327Z,28.17
2022-12-04T20:21:02.067Z,27.10
2022-12-04T20:23:29.262Z,25.33
2022-12-04T20:25:55.693Z,27.33
2022-12-04T20:28:22.522Z,27.52
2022-12-04T20:30:50.175Z,32.00
2022-12-04T20:33:17.024Z,29.83
2022-12-04T20:35:43.442Z,32.05
2022-12-04T20:38:09.987Z,30.98
2022-12-04T20:40:36.544Z,25.20
2022-12-04T20:43:03.002Z,26.63
2022-12-04T20:45:30.636Z,32.83
2022-12-04T20:47:57.187Z,25.65
2022-12-04T20:50:23.739Z,27.35
2022-12-04T20:52:51.806Z,31.45
2022-12-04T20:55:18.511Z,25.55
2022-12-04T20:57:44.962Z,33.55
2022-12-04T21:00:11.921Z,33.83
2022-12-04T21:02:38.647Z,30.30
2022-12-04T21:05:05.440Z,28.75
2022-12-04T21:07:31.910Z,29.95
2022-12-04T21:09:58.758Z,29.17
2022-12-04T21:12:44.378Z,29.27
2022-12-04T21:15:29.621Z,28.13
2022-12-04T21:17:56.248Z,25.85
2022-12-04T21:20:22.861Z,26.38
2022-12-04T21:22:49.378Z,27.58
2022-12-04T21:25:15.932Z,30.55
2022-12-04T21:27:42.445Z,30.77
2022-12-04T21:30:09.648Z,27.33
2022-12-04T21:32:36.115Z,34.92
2022-12-04T21:35:02.736Z,28.67
2022-12-04T21:37:29.138Z,29.52
2022-12-04T21:39:55.854Z,29.90
2022-12-04T21:42:31.417Z,27.05
2022-12-04T21:44:59.862Z,27.60
2022-12-04T21:47:26.793Z,26.02
2022-12-04T21:49:54.288Z,26.08
2022-12-04T21:52:21.663Z,25.02
2022-12-04T21:54:50.555Z,25.17
2022-12-04T21:57:17.392Z,26.30
2022-12-04T21:59:44.347Z,30.40
2022-12-04T22:02:15.053Z,24.60
2022-12-04T22:04:42.246Z,24.85
2022-12-04T22:07:08.819Z,23.30
2022-12-04T22:09:36.640Z,21.95
2022-12-04T22:12:14.669Z,25.52
2022-12-04T22:14:49.811Z,22.15
2022-12-04T22:17:16.193Z,22.98
2022-12-04T22:19:42.577Z,20.73
2022-12-04T22:22:09.020Z,22.17
2022-12-04T22:24:35.407Z,22.00
2022-12-04T22:27:02.007Z,21.48
2022-12-04T22:32:15.057Z,25.17
2022-12-04T22:34:41.581Z,21.00
2022-12-04T22:37:07.948Z,24.70
2022-12-04T22:39:34.355Z,25.08
2022-12-04T22:42:00.756Z,27.70
2022-12-04T22:44:27.192Z,24.92
2022-12-04T22:46:53.662Z,24.17
2022-12-04T22:49:20.192Z,25.35
2022-12-04T22:51:46.715Z,26.15
2022-12-04T22:54:15.288Z,23.63
2022-12-04T22:56:44.038Z,21.70
2022-12-04T23:01:36.801Z,21.90
2022-12-04T23:04:03.765Z,25.58
2022-12-04T23:06:31.992Z,23.70
2022-12-04T23:09:08.303Z,23.63
2022-12-04T23:11:35.715Z,24.85
2022-12-04T23:14:04.186Z,24.35
2022-12-04T23:16:33.143Z,23.63
2022-12-04T23:19:00.004Z,26.48
2022-12-04T23:21:27.369Z,23.13
2022-12-04T23:23:55.529Z,22.15
2022-12-04T23:26:29.610Z,26.45
2022-12-04T23:28:57.004Z,25.33
2022-12-04T23:31:23.854Z,26.15
2022-12-04T23:33:50.444Z,25.30
2022-12-04T23:36:17.141Z,23.30
2022-12-04T23:38:44.807Z,26.10
2022-12-04T23:41:14.508Z,25.75
2022-12-04T23:43:42.175Z,24.08
2022-12-04T23:46:11.600Z,21.55
2022-12-04T23:48:40.137Z,23.38
2022-12-04T23:51:07.711Z,25.33
2022-12-04T23:53:34.747Z,22.70
2022-12-04T23:56:16.362Z,20.20
